sensor_id;sensor_type;location;lat;lon;timestamp;P1;durP1;ratioP1;P2;durP2;ratioP2
75516;SDS011;64097;52.548;13.406;2023-04-15T06:01:42;19.02;;;17.02;;
75516;SDS011;64097;52.548;13.406;2023-04-15T06:04:08;18.50;;;16.60;;
75516;SDS011;64097;52.548;13.406;2023-04-15T06:06:33;17.40;;;15.60;;
75516;SDS011;64097;52.548;13.406;2023-04-15T06:08:59;17.23;;;15.32;;
75516;SDS011;64097;52.548;13.406;2023-04-15T06:11:25;18.90;;;16.98;;
75516;SDS011;64097;52.548;13.406;2023-04-15T06:13:51;18.25;;;16.05;;
75516;SDS011;64097;52.548;13.406;2023-04-15T06:16:17;18.33;;;16.00;;
75516;SDS011;64097;52.548;13.406;2023-04-15T06:18:42;17.73;;;15.85;;
75516;SDS011;64097;52.548;13.406;2023-04-15T06:21:08;16.10;;;14.50;;
75516;SDS011;64097;52.548;13.406;2023-04-15T06:23:34;16.95;;;15.15;;
75516;SDS011;64097;52.548;13.406;2023-04-15T06:26:00;16.63;;;14.90;;
75516;SDS011;64097;52.548;13.406;2023-04-15T06:28:26;16.85;;;15.23;;
75516;SDS011;64097;52.548;13.406;2023-04-15T06:30:53;16.55;;;14.85;;
75516;SDS011;64097;52.548;13.406;2023-04-15T06:33:19;17.52;;;15.70;;
75516;SDS011;64097;52.548;13.406;2023-04-15T06:35:45;16.80;;;15.13;;
75516;SDS011;64097;52.548;13.406;2023-04-15T06:38:11;16.50;;;14.90;;
75516;SDS011;64097;52.548;13.406;2023-04-15T06:40:38;16.52;;;14.93;;
75516;SDS011;64097;52.548;13.406;2023-04-15T06:43:04;17.33;;;14.50;;
75516;SDS011;64097;52.548;13.406;2023-04-15T06:45:30;15.35;;;13.52;;
75516;SDS011;64097;52.548;13.406;2023-04-15T06:47:56;15.52;;;13.93;;
75516;SDS011;64097;52.548;13.406;2023-04-15T06:50:22;14.70;;;13.23;;
75516;SDS011;64097;52.548;13.406;2023-04-15T06:52:48;13.00;;;11.80;;
75516;SDS011;64097;52.548;13.406;2023-04-15T06:55:13;14.00;;;12.60;;
75516;SDS011;64097;52.548;13.406;2023-04-15T06:57:39;14.32;;;12.93;;
75516;SDS011;64097;52.548;13.406;2023-04-15T07:00:05;13.93;;;12.52;;
75516;SDS011;64097;52.548;13.406;2023-04-15T07:02:32;13.80;;;12.40;;
75516;SDS011;64097;52.548;13.406;2023-04-15T07:04:57;13.18;;;11.88;;
75516;SDS011;64097;52.548;13.406;2023-04-15T07:07:23;13.50;;;12.13;;
75516;SDS011;64097;52.548;13.406;2023-04-15T07:09:49;13.55;;;12.15;;
75516;SDS011;64097;52.548;13.406;2023-04-15T07:12:17;13.40;;;12.10;;
75516;SDS011;64097;52.548;13.406;2023-04-15T07:14:43;14.00;;;12.50;;
75516;SDS011;64097;52.548;13.406;2023-04-15T07:17:09;13.80;;;12.40;;
75516;SDS011;64097;52.548;13.406;2023-04-15T07:19:35;14.00;;;12.52;;
75516;SDS011;64097;52.548;13.406;2023-04-15T07:22:01;13.90;;;12.40;;
75516;SDS011;64097;52.548;13.406;2023-04-15T07:24:27;13.02;;;11.73;;
75516;SDS011;64097;52.548;13.406;2023-04-15T07:26:54;13.18;;;11.80;;
75516;SDS011;64097;52.548;13.406;2023-04-15T07:29:23;12.95;;;11.65;;
75516;SDS011;64097;52.548;13.406;2023-04-15T07:31:49;13.32;;;12.10;;
75516;SDS011;64097;52.548;13.406;2023-04-15T07:34:15;13.45;;;11.95;;
75516;SDS011;64097;52.548;13.406;2023-04-15T07:36:41;13.45;;;12.15;;
75516;SDS011;64097;52.548;13.406;2023-04-15T07:39:07;12.48;;;11.27;;
75516;SDS011;64097;52.548;13.406;2023-04-15T07:41:33;13.90;;;12.48;;
75516;SDS011;64097;52.548;13.406;2023-04-15T07:43:58;13.27;;;11.95;;
75516;SDS011;64097;52.548;13.406;2023-04-15T07:46:24;14.18;;;12.65;;
75516;SDS011;64097;52.548;13.406;2023-04-15T07:48:51;12.65;;;11.45;;
75516;SDS011;64097;52.548;13.406;2023-04-15T07:51:18;13.98;;;12.60;;
75516;SDS011;64097;52.548;13.406;2023-04-15T07:53:45;14.25;;;12.95;;
75516;SDS011;64097;52.548;13.406;2023-04-15T07:56:11;13.85;;;12.50;;
75516;SDS011;64097;52.548;13.406;2023-04-15T07:58:37;13.48;;;12.13;;
75516;SDS011;64097;52.548;13.406;2023-04-15T08:01:03;14.30;;;12.68;;
75516;SDS011;64097;52.548;13.406;2023-04-15T08:03:29;13.65;;;12.35;;
75516;SDS011;64097;52.548;13.406;2023-04-15T08:05:56;13.65;;;12.25;;
75516;SDS011;64097;52.548;13.406;2023-04-15T08:08:21;14.80;;;13.40;;
75516;SDS011;64097;52.548;13.406;2023-04-15T08:10:47;14.60;;;13.10;;
75516;SDS011;64097;52.548;13.406;2023-04-15T08:13:13;13.88;;;12.55;;
75516;SDS011;64097;52.548;13.406;2023-04-15T08:15:40;14.07;;;12.68;;
75516;SDS011;64097;52.548;13.406;2023-04-15T08:18:06;15.30;;;13.77;;
75516;SDS011;64097;52.548;13.406;2023-04-15T08:20:32;13.63;;;12.32;;
75516;SDS011;64097;52.548;13.406;2023-04-15T08:22:57;15.73;;;13.48;;
75516;SDS011;64097;52.548;13.406;2023-04-15T08:25:23;13.43;;;12.18;;
75516;SDS011;64097;52.548;13.406;2023-04-15T08:27:49;13.38;;;12.15;;
75516;SDS011;64097;52.548;13.406;2023-04-15T08:30:15;15.13;;;13.73;;
75516;SDS011;64097;52.548;13.406;2023-04-15T08:32:41;14.38;;;13.00;;
75516;SDS011;64097;52.548;13.406;2023-04-15T08:35:13;13.68;;;12.38;;
75516;SDS011;64097;52.548;13.406;2023-04-15T08:37:39;13.90;;;12.60;;
75516;SDS011;64097;52.548;13.406;2023-04-15T08:40:05;14.27;;;12.60;;
75516;SDS011;64097;52.548;13.406;2023-04-15T08:42:36;14.40;;;13.00;;
75516;SDS011;64097;52.548;13.406;2023-04-15T08:45:08;15.23;;;13.65;;
75516;SDS011;64097;52.548;13.406;2023-04-15T08:47:35;14.02;;;12.73;;
75516;SDS011;64097;52.548;13.406;2023-04-15T08:50:04;14.48;;;13.07;;
75516;SDS011;64097;52.548;13.406;2023-04-15T08:52:33;14.73;;;13.23;;
75516;SDS011;64097;52.548;13.406;2023-04-15T08:54:59;14.57;;;13.18;;
75516;SDS011;64097;52.548;13.406;2023-04-15T08:57:27;14.50;;;13.15;;
75516;SDS011;64097;52.548;13.406;2023-04-15T08:59:56;14.60;;;13.20;;
75516;SDS011;64097;52.548;13.406;2023-04-15T09:02:23;13.68;;;12.38;;
75516;SDS011;64097;52.548;13.406;2023-04-15T09:04:51;15.07;;;13.57;;
75516;SDS011;64097;52.548;13.406;2023-04-15T09:07:17;14.70;;;13.20;;
75516;SDS011;64097;52.548;13.406;2023-04-15T09:09:43;14.13;;;12.82;;
75516;SDS011;64097;52.548;13.406;2023-04-15T09:12:10;14.88;;;13.30;;
75516;SDS011;64097;52.548;13.406;2023-04-15T09:14:36;14.13;;;12.82;;
75516;SDS011;64097;52.548;13.406;2023-04-15T09:17:04;13.95;;;12.55;;
75516;SDS011;64097;52.548;13.406;2023-04-15T09:19:30;13.30;;;12.10;;
75516;SDS011;64097;52.548;13.406;2023-04-15T09:21:58;13.25;;;11.95;;
75516;SDS011;64097;52.548;13.406;2023-04-15T09:24:24;14.55;;;13.15;;
75516;SDS011;64097;52.548;13.406;2023-04-15T09:29:24;12.90;;;11.60;;
75516;SDS011;64097;52.548;13.406;2023-04-15T09:31:50;13.65;;;12.25;;
75516;SDS011;64097;52.548;13.406;2023-04-15T09:34:17;13.30;;;12.10;;
75516;SDS011;64097;52.548;13.406;2023-04-15T09:39:11;12.00;;;10.82;;
75516;SDS011;64097;52.548;13.406;2023-04-15T09:41:37;13.48;;;12.07;;
75516;SDS011;64097;52.548;13.406;2023-04-15T09:44:04;15.18;;;13.60;;
75516;SDS011;64097;52.548;13.406;2023-04-15T09:46:43;14.77;;;13.27;;
75516;SDS011;64097;52.548;13.406;2023-04-15T09:49:09;13.38;;;11.98;;
75516;SDS011;64097;52.548;13.406;2023-04-15T09:51:36;12.68;;;11.38;;
75516;SDS011;64097;52.548;13.406;2023-04-15T09:54:02;12.90;;;11.60;;
75516;SDS011;64097;52.548;13.406;2023-04-15T09:56:33;12.50;;;11.18;;
75516;SDS011;64097;52.548;13.406;2023-04-15T09:59:05;12.45;;;11.25;;
75516;SDS011;64097;52.548;13.406;2023-04-15T10:01:32;14.35;;;12.88;;
75516;SDS011;64097;52.548;13.406;2023-04-15T10:03:58;13.73;;;12.43;;
75516;SDS011;64097;52.548;13.406;2023-04-15T10:06:27;13.10;;;11.82;;
75516;SDS011;64097;52.548;13.406;2023-04-15T10:08:54;13.60;;;12.30;;
75516;SDS011;64097;52.548;13.406;2023-04-15T10:11:22;14.32;;;12.93;;
75516;SDS011;64097;52.548;13.406;2023-04-15T10:13:49;13.13;;;11.85;;
75516;SDS011;64097;52.548;13.406;2023-04-15T10:16:19;13.02;;;11.73;;
75516;SDS011;64097;52.548;13.406;2023-04-15T10:18:47;13.35;;;12.10;;
75516;SDS011;64097;52.548;13.406;2023-04-15T10:21:20;13.90;;;12.52;;
75516;SDS011;64097;52.548;13.406;2023-04-15T10:23:47;14.02;;;12.63;;
75516;SDS011;64097;52.548;13.406;2023-04-15T10:26:14;14.75;;;13.35;;
75516;SDS011;64097;52.548;13.406;2023-04-15T10:28:42;13.50;;;12.20;;
75516;SDS011;64097;52.548;13.406;2023-04-15T10:31:09;14.15;;;12.75;;
75516;SDS011;64097;52.548;13.406;2023-04-15T10:33:36;14.07;;;12.70;;
75516;SDS011;64097;52.548;13.406;2023-04-15T10:36:03;12.63;;;11.43;;
75516;SDS011;64097;52.548;13.406;2023-04-15T10:38:37;15.50;;;14.00;;
75516;SDS011;64097;52.548;13.406;2023-04-15T10:41:20;13.20;;;11.90;;
75516;SDS011;64097;52.548;13.406;2023-04-15T10:43:54;13.43;;;12.13;;
75516;SDS011;64097;52.548;13.406;2023-04-15T10:46:37;12.48;;;11.38;;
75516;SDS011;64097;52.548;13.406;2023-04-15T10:49:08;14.32;;;13.02;;
75516;SDS011;64097;52.548;13.406;2023-04-15T10:51:40;13.23;;;12.00;;
75516;SDS011;64097;52.548;13.406;2023-04-15T10:57:31;15.60;;;14.02;;
75516;SDS011;64097;52.548;13.406;2023-04-15T11:08:07;12.70;;;11.40;;
75516;SDS011;64097;52.548;13.406;2023-04-15T11:13:01;13.95;;;12.65;;
75516;SDS011;64097;52.548;13.406;2023-04-15T11:20:38;13.55;;;12.25;;
75516;SDS011;64097;52.548;13.406;2023-04-15T11:23:05;13.90;;;12.60;;
75516;SDS011;64097;52.548;13.406;2023-04-15T11:25:31;13.57;;;12.27;;
75516;SDS011;64097;52.548;13.406;2023-04-15T11:27:58;13.38;;;12.07;;
75516;SDS011;64097;52.548;13.406;2023-04-15T11:30:26;12.40;;;11.30;;
75516;SDS011;64097;52.548;13.406;2023-04-15T11:32:54;12.90;;;11.68;;
75516;SDS011;64097;52.548;13.406;2023-04-15T11:35:31;14.07;;;12.68;;
75516;SDS011;64097;52.548;13.406;2023-04-15T11:37:57;13.90;;;12.50;;
75516;SDS011;64097;52.548;13.406;2023-04-15T11:40:27;13.18;;;11.98;;
75516;SDS011;64097;52.548;13.406;2023-04-15T11:45:53;12.10;;;10.93;;
75516;SDS011;64097;52.548;13.406;2023-04-15T11:48:24;12.88;;;11.57;;
75516;SDS011;64097;52.548;13.406;2023-04-15T11:50:56;13.55;;;12.25;;
75516;SDS011;64097;52.548;13.406;2023-04-15T11:53:44;13.63;;;12.32;;
75516;SDS011;64097;52.548;13.406;2023-04-15T11:56:21;11.93;;;10.82;;
75516;SDS011;64097;52.548;13.406;2023-04-15T11:58:52;12.25;;;11.05;;
75516;SDS011;64097;52.548;13.406;2023-04-15T12:02:09;12.05;;;10.85;;
75516;SDS011;64097;52.548;13.406;2023-04-15T12:04:19;12.00;;;10.80;;
75516;SDS011;64097;52.548;13.406;2023-04-15T12:06:47;12.35;;;11.13;;
75516;SDS011;64097;52.548;13.406;2023-04-15T12:09:13;12.60;;;11.30;;
75516;SDS011;64097;52.548;13.406;2023-04-15T12:11:43;11.77;;;10.65;;
75516;SDS011;64097;52.548;13.406;2023-04-15T12:16:49;13.13;;;11.82;;
75516;SDS011;64097;52.548;13.406;2023-04-15T12:19:23;13.35;;;12.15;;
75516;SDS011;64097;52.548;13.406;2023-04-15T12:21:52;12.85;;;11.65;;
75516;SDS011;64097;52.548;13.406;2023-04-15T12:24:22;12.05;;;10.85;;
75516;SDS011;64097;52.548;13.406;2023-04-15T12:26:52;12.38;;;11.13;;
75516;SDS011;64097;52.548;13.406;2023-04-15T12:29:24;12.60;;;11.40;;
75516;SDS011;64097;52.548;13.406;2023-04-15T12:31:54;10.57;;;9.60;;
75516;SDS011;64097;52.548;13.406;2023-04-15T12:34:25;10.88;;;9.77;;
75516;SDS011;64097;52.548;13.406;2023-04-15T12:36:58;12.95;;;11.75;;
75516;SDS011;64097;52.548;13.406;2023-04-15T12:39:26;12.13;;;11.00;;
75516;SDS011;64097;52.548;13.406;2023-04-15T12:41:55;11.35;;;10.25;;
75516;SDS011;64097;52.548;13.406;2023-04-15T12:44:23;12.68;;;11.48;;
75516;SDS011;64097;52.548;13.406;2023-04-15T12:46:49;12.23;;;11.02;;
75516;SDS011;64097;52.548;13.406;2023-04-15T12:49:16;12.13;;;10.93;;
75516;SDS011;64097;52.548;13.406;2023-04-15T12:51:44;12.27;;;11.18;;
75516;SDS011;64097;52.548;13.406;2023-04-15T12:54:11;10.88;;;9.88;;
75516;SDS011;64097;52.548;13.406;2023-04-15T12:56:36;10.85;;;9.75;;
75516;SDS011;64097;52.548;13.406;2023-04-15T12:59:02;10.38;;;9.30;;
75516;SDS011;64097;52.548;13.406;2023-04-15T13:01:28;10.63;;;9.63;;
75516;SDS011;64097;52.548;13.406;2023-04-15T13:03:54;11.07;;;9.98;;
75516;SDS011;64097;52.548;13.406;2023-04-15T13:06:20;11.23;;;10.05;;
75516;SDS011;64097;52.548;13.406;2023-04-15T13:08:46;9.85;;;8.85;;
75516;SDS011;64097;52.548;13.406;2023-04-15T13:11:12;10.98;;;9.98;;
75516;SDS011;64097;52.548;13.406;2023-04-15T13:13:37;11.55;;;10.38;;
75516;SDS011;64097;52.548;13.406;2023-04-15T13:16:03;10.98;;;9.98;;
75516;SDS011;64097;52.548;13.406;2023-04-15T13:18:29;10.30;;;9.30;;
75516;SDS011;64097;52.548;13.406;2023-04-15T13:20:55;10.93;;;9.93;;
75516;SDS011;64097;52.548;13.406;2023-04-15T13:23:21;10.32;;;9.32;;
75516;SDS011;64097;52.548;13.406;2023-04-15T13:25:46;10.65;;;9.65;;
75516;SDS011;64097;52.548;13.406;2023-04-15T13:28:12;10.43;;;9.43;;
75516;SDS011;64097;52.548;13.406;2023-04-15T13:30:38;10.73;;;9.70;;
75516;SDS011;64097;52.548;13.406;2023-04-15T13:33:04;9.27;;;8.38;;
75516;SDS011;64097;52.548;13.406;2023-04-15T13:35:33;10.00;;;9.00;;
75516;SDS011;64097;52.548;13.406;2023-04-15T13:37:59;8.38;;;7.68;;
75516;SDS011;64097;52.548;13.406;2023-04-15T13:40:25;8.30;;;7.57;;
75516;SDS011;64097;52.548;13.406;2023-04-15T13:42:51;8.38;;;7.68;;
75516;SDS011;64097;52.548;13.406;2023-04-15T13:45:17;8.80;;;8.00;;
75516;SDS011;64097;52.548;13.406;2023-04-15T13:47:43;9.13;;;8.32;;
75516;SDS011;64097;52.548;13.406;2023-04-15T13:50:09;8.45;;;7.65;;
75516;SDS011;64097;52.548;13.406;2023-04-15T13:52:35;8.48;;;7.78;;
75516;SDS011;64097;52.548;13.406;2023-04-15T13:55:01;8.80;;;7.97;;
75516;SDS011;64097;52.548;13.406;2023-04-15T13:57:27;8.32;;;7.53;;
75516;SDS011;64097;52.548;13.406;2023-04-15T13:59:53;9.10;;;8.30;;
